Time;durP1;ratioP1;P1;durP2;ratioP2;P2;SDS_P1;SDS_P2;PMS_P1;PMS_P2;Temp;Humidity;BMP_temperature;BMP_pressure;BME280_temperature;BME280_humidity;BME280_pressure;Samples;Min_cycle;Max_cycle;Signal;HPM_P1;HPM_P2
2022/09/02 00:00:35;;;;;;;;;9.75;8.75;;;;;25.57;30.85;100791.00;5120826;27;45331;-68
2022/09/02 00:03:01;;;;;;;;;11.75;9.25;;;;;25.56;30.63;100791.97;5120105;27;45302;-69
2022/09/02 00:05:27;;;;;;;;;8.00;8.00;;;;;25.53;30.88;100786.84;5108548;27;45432;-69
2022/09/02 00:07:54;;;;;;;;;9.00;8.00;;;;;25.52;31.28;100779.75;5120729;27;45564;-69
2022/09/02 00:10:19;;;;;;;;;12.25;11.50;;;;;25.47;30.85;100774.72;5120938;27;45529;-69
2022/09/02 00:12:44;;;;;;;;;8.25;7.25;;;;;25.46;30.76;100770.34;5120427;27;45697;-69
2022/09/02 00:15:10;;;;;;;;;11.25;10.00;;;;;25.47;31.31;100780.09;5120828;27;45406;-69
2022/09/02 00:17:35;;;;;;;;;8.25;7.00;;;;;25.45;31.04;100785.59;5101998;27;45343;-69
2022/09/02 00:20:01;;;;;;;;;8.75;8.75;;;;;25.45;30.87;100776.69;5119301;27;45351;-69
2022/09/02 00:22:26;;;;;;;;;9.50;8.75;;;;;25.43;31.05;100779.50;5120549;27;45238;-69
2022/09/02 00:24:51;;;;;;;;;10.50;10.50;;;;;25.39;31.10;100763.69;5120587;27;50065;-69
2022/09/02 00:27:17;;;;;;;;;8.00;8.00;;;;;25.42;30.83;100771.50;5120355;27;45163;-69
2022/09/02 00:29:42;;;;;;;;;10.50;10.25;;;;;25.41;31.34;100772.53;5120639;27;45569;-70
2022/09/02 00:32:07;;;;;;;;;12.25;10.50;;;;;25.40;31.32;100768.09;5120561;27;45463;-70
2022/09/02 00:34:33;;;;;;;;;9.75;9.00;;;;;25.36;31.33;100759.41;5120527;27;46015;-70
2022/09/02 00:36:58;;;;;;;;;9.50;9.50;;;;;25.33;31.43;100754.22;5120223;27;45453;-70
2022/09/02 00:39:24;;;;;;;;;9.75;9.75;;;;;25.33;31.35;100758.75;5120318;27;46159;-70
2022/09/02 00:41:51;;;;;;;;;10.25;10.00;;;;;25.30;31.30;100755.31;5120276;27;45329;-70
2022/09/02 00:44:18;;;;;;;;;10.50;9.50;;;;;25.26;31.46;100753.84;5123709;27;45409;-70
2022/09/02 00:46:44;;;;;;;;;9.25;9.25;;;;;25.22;31.32;100752.38;5123836;27;45299;-70
2022/09/02 00:49:27;;;;;;;;;8.75;8.75;;;;;25.20;31.28;100756.16;5123617;27;45195;-70
2022/09/02 00:52:02;;;;;;;;;9.75;9.50;;;;;25.18;31.57;100744.63;5123628;27;45272;-70
2022/09/02 00:54:31;;;;;;;;;8.50;8.50;;;;;25.12;31.58;100745.97;5123858;27;45256;-70
2022/09/02 00:56:59;;;;;;;;;9.25;9.25;;;;;25.10;31.54;100740.69;5123469;27;45398;-71
2022/09/02 01:00:05;;;;;;;;;11.00;10.00;;;;;25.06;31.78;100743.75;5123254;27;46993;-71
2022/09/02 01:02:31;;;;;;;;;10.25;10.25;;;;;25.03;31.71;100742.16;5122614;27;45402;-70
2022/09/02 01:04:59;;;;;;;;;9.75;9.75;;;;;25.02;31.64;100744.94;5123168;27;45464;-71
2022/09/02 01:07:28;;;;;;;;;10.25;10.25;;;;;24.98;31.75;100739.81;5123475;27;45218;-70
2022/09/02 01:09:55;;;;;;;;;9.00;9.00;;;;;24.95;31.90;100745.41;5123303;27;46236;-70
2022/09/02 01:12:23;;;;;;;;;10.25;9.50;;;;;24.92;32.10;100734.88;5123224;27;45367;-70
2022/09/02 01:14:49;;;;;;;;;10.25;9.75;;;;;24.89;31.81;100734.25;5123379;27;45234;-70
2022/09/02 01:17:19;;;;;;;;;9.25;8.25;;;;;24.86;31.79;100738.03;5123220;27;45488;-70
2022/09/02 01:19:49;;;;;;;;;10.00;10.00;;;;;24.83;32.31;100738.28;5122889;27;45444;-70
2022/09/02 01:22:17;;;;;;;;;11.00;10.25;;;;;24.80;32.11;100739.38;5123334;27;45403;-70
2022/09/02 01:24:43;;;;;;;;;11.00;9.50;;;;;24.78;31.94;100735.03;5123033;27;45323;-70
2022/09/02 01:27:08;;;;;;;;;7.00;7.00;;;;;24.75;32.39;100727.22;5122959;27;45318;-70
2022/09/02 01:29:33;;;;;;;;;10.00;9.00;;;;;24.71;32.43;100725.75;5122802;27;45331;-69
2022/09/02 01:31:59;;;;;;;;;10.00;7.25;;;;;24.67;32.19;100742.06;5123175;27;45259;-70
2022/09/02 01:34:24;;;;;;;;;9.25;9.25;;;;;24.65;32.37;100738.66;5122965;27;45368;-70
2022/09/02 01:36:50;;;;;;;;;8.50;8.50;;;;;24.59;31.98;100730.16;5122963;27;45332;-71
2022/09/02 01:39:16;;;;;;;;;8.50;8.00;;;;;24.60;32.33;100735.44;5122623;27;46220;-69
2022/09/02 01:41:41;;;;;;;;;14.50;11.25;;;;;24.57;32.53;100734.78;5122822;27;45269;-69
2022/09/02 01:44:09;;;;;;;;;11.00;10.00;;;;;24.52;32.42;100731.59;5122948;27;45397;-70
2022/09/02 01:46:36;;;;;;;;;10.25;10.25;;;;;24.51;32.19;100730.72;5122996;27;45378;-69
2022/09/02 01:49:01;;;;;;;;;12.00;10.50;;;;;24.49;32.20;100721.94;5122698;27;45335;-70
2022/09/02 01:51:27;;;;;;;;;12.50;11.00;;;;;24.53;32.43;100735.97;5122766;27;45269;-70
2022/09/02 01:53:52;;;;;;;;;9.25;9.25;;;;;24.52;32.46;100736.97;5122700;27;45332;-71
2022/09/02 01:56:17;;;;;;;;;10.25;9.25;;;;;24.50;32.73;100737.06;5122772;27;45269;-70
2022/09/02 01:58:43;;;;;;;;;10.00;9.75;;;;;24.49;32.43;100738.06;5122496;27;45503;-70
2022/09/02 02:01:10;;;;;;;;;9.50;9.50;;;;;24.49;32.52;100733.53;5122719;27;45299;-70
2022/09/02 02:03:36;;;;;;;;;8.50;6.75;;;;;24.41;32.67;100716.25;5122274;27;45315;-70
2022/09/02 02:06:06;;;;;;;;;9.50;8.25;;;;;24.49;32.53;100732.69;5122549;27;45417;-70
2022/09/02 02:08:32;;;;;;;;;10.00;10.00;;;;;24.47;32.92;100735.44;5122294;27;45179;-70
2022/09/02 02:10:57;;;;;;;;;10.00;8.75;;;;;24.47;32.71;100748.03;5122486;27;45420;-70
2022/09/02 02:13:23;;;;;;;;;10.25;10.25;;;;;24.47;32.82;100789.16;5103975;27;45422;-70
2022/09/02 02:15:49;;;;;;;;;10.50;8.75;;;;;24.39;33.15;100764.72;5121062;27;45501;-70
2022/09/02 02:18:14;;;;;;;;;10.50;8.50;;;;;24.36;33.00;100750.63;5122201;27;46509;-70
2022/09/02 02:20:39;;;;;;;;;10.75;10.75;;;;;24.34;33.23;100783.81;5122287;27;45230;-71
2022/09/02 02:23:06;;;;;;;;;11.00;9.00;;;;;24.26;33.15;100751.28;5122446;27;45490;-70
2022/09/02 02:25:31;;;;;;;;;8.50;8.50;;;;;24.23;33.29;100748.00;5122400;27;45635;-70
2022/09/02 02:27:57;;;;;;;;;8.50;8.00;;;;;24.19;33.44;100774.19;5121983;27;46971;-70
2022/09/02 02:30:22;;;;;;;;;8.00;8.00;;;;;24.18;33.22;100805.53;5122315;27;45467;-70
2022/09/02 02:32:48;;;;;;;;;8.25;8.25;;;;;24.09;33.69;100771.28;5122270;27;45314;-70
2022/09/02 02:35:15;;;;;;;;;10.00;9.50;;;;;24.06;33.39;100747.34;5121849;27;45507;-69
2022/09/02 02:37:41;;;;;;;;;10.75;10.75;;;;;24.01;33.23;100787.94;5121677;27;46315;-70
2022/09/02 02:40:09;;;;;;;;;10.25;10.25;;;;;24.00;33.69;100775.50;5122063;27;45362;-70
2022/09/02 02:42:35;;;;;;;;;9.25;9.25;;;;;23.96;33.10;100757.03;5122272;27;45422;-69
2022/09/02 02:45:00;;;;;;;;;9.00;9.00;;;;;23.93;33.23;100749.19;5121854;27;45721;-69
2022/09/02 02:47:26;;;;;;;;;9.25;8.00;;;;;23.91;33.63;100749.31;5121315;27;45293;-69
2022/09/02 02:49:52;;;;;;;;;9.25;9.25;;;;;23.91;33.57;100743.94;5120385;27;45413;-70
2022/09/02 02:52:17;;;;;;;;;13.50;11.00;;;;;23.89;33.71;100737.78;5122336;27;45423;-69
2022/09/02 02:54:43;;;;;;;;;9.25;8.75;;;;;23.91;33.42;100743.94;5121818;27;45295;-70
2022/09/02 02:57:09;;;;;;;;;9.00;7.25;;;;;23.91;33.39;100743.94;5121650;27;45312;-70
2022/09/02 02:59:35;;;;;;;;;8.00;7.50;;;;;23.91;33.46;100743.03;5121621;27;45273;-70
2022/09/02 03:02:02;;;;;;;;;8.75;7.75;;;;;23.91;33.65;100745.72;5121819;27;45185;-70
2022/09/02 03:04:27;;;;;;;;;8.50;8.50;;;;;23.91;33.38;100741.25;5121298;27;45494;-70
2022/09/02 03:06:52;;;;;;;;;10.25;8.75;;;;;23.91;33.62;100749.31;5082218;27;47707;-70
2022/09/02 03:09:19;;;;;;;;;8.25;7.75;;;;;23.93;33.72;100746.50;5100964;27;45338;-70
2022/09/02 03:11:45;;;;;;;;;10.50;10.50;;;;;23.91;33.87;100745.72;5100548;27;45260;-70
2022/09/02 03:14:10;;;;;;;;;8.00;7.00;;;;;23.93;33.52;100749.19;5100864;27;45358;-70
2022/09/02 03:16:36;;;;;;;;;10.25;10.25;;;;;23.93;33.58;100747.34;5100810;27;45303;-70
2022/09/02 03:19:02;;;;;;;;;8.75;7.50;;;;;23.90;33.17;100739.50;5100519;27;45294;-69
2022/09/02 03:21:27;;;;;;;;;10.00;10.00;;;;;23.91;33.77;100725.16;5101021;27;45311;-70
2022/09/02 03:23:52;;;;;;;;;10.50;9.00;;;;;23.95;33.64;100728.47;5100913;27;45298;-70
2022/09/02 03:26:20;;;;;;;;;10.50;10.50;;;;;23.95;33.58;100732.03;5100556;27;45218;-71
2022/09/02 03:28:48;;;;;;;;;8.25;8.25;;;;;23.94;33.63;100727.63;5100571;27;45504;-70
2022/09/02 03:31:19;;;;;;;;;5.25;5.25;;;;;23.92;33.88;100721.50;5100851;27;45262;-70
2022/09/02 03:33:44;;;;;;;;;9.75;9.25;;;;;23.94;33.71;100730.31;5100377;27;45239;-69
2022/09/02 03:36:22;;;;;;;;;12.25;10.25;;;;;23.96;33.61;100727.50;5100492;27;45243;-69
2022/09/02 03:38:47;;;;;;;;;10.50;10.50;;;;;23.92;33.98;100712.59;5100422;27;45228;-69
2022/09/02 03:41:12;;;;;;;;;10.75;10.00;;;;;23.93;33.88;100720.53;5100659;27;45352;-70
2022/09/02 03:43:38;;;;;;;;;10.50;10.00;;;;;23.94;33.84;100716.03;5100310;27;45281;-69
2022/09/02 03:46:04;;;;;;;;;11.75;11.50;;;;;23.94;33.76;100714.19;5100579;27;46068;-70
2022/09/02 03:48:29;;;;;;;;;13.00;11.75;;;;;23.93;33.92;100715.16;5100201;27;45449;-70
2022/09/02 03:50:54;;;;;;;;;11.00;11.00;;;;;23.93;34.14;100708.94;5100645;27;45534;-70
2022/09/02 03:53:20;;;;;;;;;10.75;10.75;;;;;23.93;34.01;100703.59;5098990;27;45325;-69
2022/09/02 03:55:45;;;;;;;;;13.00;10.50;;;;;23.92;34.08;100702.72;5098636;27;47750;-70
2022/09/02 03:58:11;;;;;;;;;12.00;12.00;;;;;23.92;34.23;100704.53;5100081;27;45288;-69
2022/09/02 04:00:37;;;;;;;;;11.25;11.25;;;;;23.90;34.16;100698.38;5100546;27;45343;-70
2022/09/02 04:03:02;;;;;;;;;13.25;11.50;;;;;23.89;34.38;100702.91;5101626;27;45367;-70
2022/09/02 04:05:28;;;;;;;;;19.00;17.50;;;;;23.88;34.01;100690.44;5120461;27;46217;-71
2022/09/02 04:07:55;;;;;;;;;17.75;13.75;;;;;23.88;34.24;100694.97;5120786;27;45228;-70
2022/09/02 04:10:20;;;;;;;;;17.50;16.00;;;;;23.87;34.31;100710.19;5119800;27;45263;-70
2022/09/02 04:12:47;;;;;;;;;17.00;15.75;;;;;23.87;34.33;100704.81;5120558;27;45326;-70
2022/09/02 04:15:13;;;;;;;;;20.75;18.75;;;;;23.86;34.45;100692.38;5120847;27;47291;-70
2022/09/02 04:17:40;;;;;;;;;22.50;19.75;;;;;23.85;34.40;100707.63;5120720;27;45305;-71
2022/09/02 04:20:08;;;;;;;;;21.50;18.50;;;;;23.85;34.52;100710.31;5124348;27;45330;-70
2022/09/02 04:22:34;;;;;;;;;17.00;17.00;;;;;23.83;34.29;100704.19;5124165;27;45316;-70
2022/09/02 04:24:59;;;;;;;;;20.25;19.00;;;;;23.84;34.32;100707.75;5124237;27;45402;-70
2022/09/02 04:27:25;;;;;;;;;18.00;17.75;;;;;23.87;34.54;100710.19;5122631;27;45369;-70
2022/09/02 04:29:51;;;;;;;;;18.75;18.50;;;;;23.88;34.38;100716.44;5124409;27;45459;-71
2022/09/02 04:32:16;;;;;;;;;19.25;17.00;;;;;23.88;34.73;100701.19;5124126;27;45301;-70
2022/09/02 04:34:41;;;;;;;;;14.50;13.25;;;;;23.88;34.11;100703.03;5123410;27;45777;-71
2022/09/02 04:37:07;;;;;;;;;13.75;11.50;;;;;23.87;34.71;100696.78;5123530;27;45314;-70
2022/09/02 04:39:33;;;;;;;;;15.50;14.75;;;;;23.85;34.62;100688.00;5124222;27;45300;-70
2022/09/02 04:41:58;;;;;;;;;15.50;14.50;;;;;23.87;34.76;100694.09;5123863;27;45272;-70
2022/09/02 04:44:24;;;;;;;;;13.50;13.50;;;;;23.87;34.96;100686.03;5123794;27;46175;-70
2022/09/02 04:46:50;;;;;;;;;14.25;14.00;;;;;23.84;34.72;100667.50;5105198;27;45511;-70
2022/09/02 04:49:16;;;;;;;;;17.00;14.75;;;;;23.85;34.92;100685.31;5123853;27;45515;-70
2022/09/02 04:51:41;;;;;;;;;15.50;13.75;;;;;23.84;34.93;100679.06;5123703;27;45260;-70
2022/09/02 04:54:06;;;;;;;;;12.00;11.75;;;;;23.84;34.57;100680.91;5123899;27;45368;-70
2022/09/02 04:56:32;;;;;;;;;10.75;10.25;;;;;23.82;34.62;100675.66;5123550;27;45251;-70
2022/09/02 04:58:58;;;;;;;;;12.00;10.75;;;;;23.84;34.72;100686.28;5123854;27;45390;-70
2022/09/02 05:01:31;;;;;;;;;9.75;9.75;;;;;23.82;34.95;100689.06;5123575;27;45244;-70
2022/09/02 05:03:56;;;;;;;;;9.50;9.50;;;;;23.80;34.91;100687.47;5123204;27;45404;-70
2022/09/02 05:06:25;;;;;;;;;10.00;9.25;;;;;23.83;34.90;100689.94;5123470;27;45322;-70
2022/09/02 05:08:52;;;;;;;;;11.00;11.00;;;;;23.82;34.80;100685.53;5123674;27;45322;-70
2022/09/02 05:11:21;;;;;;;;;10.00;8.25;;;;;23.82;35.12;100691.75;5123434;27;45467;-70
2022/09/02 05:13:50;;;;;;;;;10.25;10.25;;;;;23.81;35.31;100691.84;5123235;27;45389;-70
2022/09/02 05:16:16;;;;;;;;;11.50;11.00;;;;;23.79;35.37;100696.47;5104741;27;45279;-70
2022/09/02 05:18:42;;;;;;;;;10.75;10.75;;;;;23.76;35.27;100691.31;5123230;27;45440;-70
2022/09/02 05:21:07;;;;;;;;;9.75;9.75;;;;;23.75;35.38;100686.91;5123121;27;45490;-69
2022/09/02 05:23:33;;;;;;;;;14.50;12.25;;;;;23.74;35.57;100688.75;5104742;27;45419;-69
2022/09/02 05:26:02;;;;;;;;;11.25;10.00;;;;;23.70;35.86;100693.47;5123184;27;45305;-62
2022/09/02 05:28:27;;;;;;;;;11.50;11.00;;;;;23.68;35.36;100698.09;5122301;27;45315;-63
2022/09/02 05:30:53;;;;;;;;;14.25;12.00;;;;;23.67;36.01;100700.88;5122978;27;45258;-62
2022/09/02 05:33:18;;;;;;;;;14.00;12.25;;;;;23.64;36.10;100699.25;5122810;27;45377;-60
2022/09/02 05:35:44;;;;;;;;;10.75;10.50;;;;;23.61;36.25;100703.97;5122879;27;45347;-65
2022/09/02 05:38:09;;;;;;;;;10.00;10.00;;;;;23.61;36.09;100712.91;5105345;27;47870;-65
2022/09/02 05:40:37;;;;;;;;;12.50;12.50;;;;;23.53;35.69;100709.88;5103676;27;45601;-65
2022/09/02 05:43:03;;;;;;;;;13.50;13.00;;;;;23.59;36.11;100714.81;5109785;27;46336;-66
2022/09/02 05:45:28;;;;;;;;;12.25;12.00;;;;;23.58;36.32;100714.94;5116741;27;45305;-65
2022/09/02 05:47:53;;;;;;;;;12.75;12.75;;;;;23.53;36.26;100707.19;5099545;27;45445;-66
2022/09/02 05:50:19;;;;;;;;;11.25;11.00;;;;;23.54;36.30;100712.44;5122535;27;45691;-66
2022/09/02 05:52:45;;;;;;;;;11.75;11.75;;;;;23.48;36.50;100707.53;5117688;27;45941;-67
2022/09/02 05:55:10;;;;;;;;;8.50;8.50;;;;;23.49;36.17;100709.22;5116987;27;45271;-66
2022/09/02 05:57:35;;;;;;;;;12.75;11.75;;;;;23.46;36.51;100712.13;5117842;27;45322;-69
2022/09/02 06:00:04;;;;;;;;;15.00;12.75;;;;;23.45;36.20;100709.56;5095199;27;45257;-67
2022/09/02 06:02:30;;;;;;;;;14.25;11.75;;;;;23.41;36.48;100700.88;5116938;27;46172;-68
2022/09/02 06:04:55;;;;;;;;;12.00;11.25;;;;;23.40;36.62;100698.31;5103326;27;45469;-68
2022/09/02 06:07:22;;;;;;;;;14.00;11.50;;;;;23.37;36.37;100697.53;5121986;27;45449;-68
2022/09/02 06:09:48;;;;;;;;;11.50;11.00;;;;;23.30;36.66;100687.34;5122433;27;45339;-69
2022/09/02 06:12:17;;;;;;;;;12.00;12.00;;;;;23.35;36.57;100710.19;5090849;27;46433;-68
2022/09/02 06:14:43;;;;;;;;;13.00;11.50;;;;;23.33;36.65;100709.44;5122427;27;45601;-65
2022/09/02 06:17:08;;;;;;;;;13.00;13.00;;;;;23.28;36.90;100703.53;5121751;27;45151;-67
2022/09/02 06:19:34;;;;;;;;;13.75;13.75;;;;;23.30;36.95;100706.13;5122192;27;45198;-64
2022/09/02 06:22:01;;;;;;;;;14.00;12.75;;;;;23.28;36.61;100708.91;5121576;27;45404;-64
2022/09/02 06:24:28;;;;;;;;;12.00;12.00;;;;;23.26;36.70;100700.09;5122232;27;45247;-64
2022/09/02 06:26:55;;;;;;;;;13.75;13.00;;;;;23.24;36.70;100702.03;5121747;27;45328;-63
2022/09/02 06:29:21;;;;;;;;;11.00;11.00;;;;;23.19;36.86;100686.28;5086623;27;45400;-64
2022/09/02 06:31:48;;;;;;;;;10.25;10.25;;;;;23.21;37.10;100683.47;5117054;27;48069;-63
2022/09/02 06:34:15;;;;;;;;;12.00;12.00;;;;;23.18;36.93;100687.22;5114920;27;45443;-64
2022/09/02 06:36:43;;;;;;;;;15.25;11.75;;;;;23.17;36.59;100682.81;5103175;27;45243;-61
2022/09/02 06:39:11;;;;;;;;;12.50;11.75;;;;;23.17;36.88;100685.50;5119941;27;45327;-64
2022/09/02 06:41:38;;;;;;;;;17.50;12.00;;;;;23.15;37.12;100681.19;5120793;27;46139;-62
2022/09/02 06:44:05;;;;;;;;;11.25;11.25;;;;;23.14;37.38;100684.81;5121400;27;46164;-61
2022/09/02 06:46:35;;;;;;;;;12.25;11.00;;;;;23.11;37.27;100679.69;5120001;27;45297;-61
2022/09/02 06:49:02;;;;;;;;;12.75;11.25;;;;;23.12;37.02;100687.63;5121489;27;45508;-61
2022/09/02 06:51:31;;;;;;;;;11.50;11.25;;;;;23.12;37.15;100674.22;5121241;27;47252;-62
2022/09/02 06:53:57;;;;;;;;;11.50;11.50;;;;;23.11;37.29;100671.66;5122663;27;45396;-61
2022/09/02 06:56:23;;;;;;;;;12.50;12.50;;;;;23.08;37.39;100662.00;5121703;27;45363;-62
2022/09/02 06:58:48;;;;;;;;;10.75;10.75;;;;;23.10;37.12;100669.94;5120180;27;45401;-62
2022/09/02 07:01:23;;;;;;;;;12.25;11.25;;;;;23.09;37.12;100674.41;5121770;27;45370;-62
2022/09/02 07:06:36;;;;;;;;;16.75;12.00;;;;;23.11;37.30;100685.03;5121579;27;45555;-62
2022/09/02 07:09:04;;;;;;;;;14.50;13.25;;;;;23.11;37.27;100679.69;5122631;27;45532;-62
2022/09/02 07:11:29;;;;;;;;;13.00;12.00;;;;;23.12;37.46;100681.38;5118342;27;46303;-62
2022/09/02 07:13:55;;;;;;;;;15.00;13.00;;;;;23.13;37.30;100680.41;5113587;27;45362;-62
2022/09/02 07:16:20;;;;;;;;;10.00;10.00;;;;;23.14;37.14;100677.63;5121461;27;45496;-62
2022/09/02 07:18:46;;;;;;;;;13.75;10.50;;;;;23.16;37.70;100683.78;5121209;27;45233;-63
2022/09/02 07:21:12;;;;;;;;;10.50;10.50;;;;;23.14;37.19;100677.63;5121269;27;45177;-62
2022/09/02 07:23:37;;;;;;;;;13.00;12.25;;;;;23.18;37.34;100678.31;5121497;27;45452;-62
2022/09/02 07:26:03;;;;;;;;;10.75;9.75;;;;;23.17;37.51;100661.38;5102903;27;45335;-62
2022/09/02 07:28:28;;;;;;;;;13.00;13.00;;;;;23.20;37.01;100660.31;5121124;27;45330;-62
2022/09/02 07:30:54;;;;;;;;;10.75;9.00;;;;;23.22;37.29;100666.44;5121256;27;47531;-62
2022/09/02 07:33:21;;;;;;;;;9.00;9.00;;;;;23.24;37.15;100667.16;5121014;27;45434;-62
2022/09/02 07:35:47;;;;;;;;;11.25;9.50;;;;;23.27;37.27;100660.75;5121235;27;45307;-61
2022/09/02 07:38:13;;;;;;;;;10.75;10.75;;;;;23.28;37.35;100654.41;5121472;27;45508;-61
2022/09/02 07:40:40;;;;;;;;;13.50;11.00;;;;;23.30;37.09;100656.03;5102043;27;45188;-62
2022/09/02 07:43:08;;;;;;;;;11.75;11.00;;;;;23.35;37.24;100655.72;5114111;27;45232;-61
2022/09/02 07:45:35;;;;;;;;;10.50;10.50;;;;;23.35;37.38;100656.56;5122298;27;45338;-61
2022/09/02 07:48:01;;;;;;;;;8.50;8.00;;;;;23.40;37.17;100668.81;5120910;27;45330;-61
2022/09/02 07:50:26;;;;;;;;;8.50;8.50;;;;;23.40;37.07;100666.97;5121188;27;46013;-61
2022/09/02 07:52:54;;;;;;;;;11.00;11.00;;;;;23.42;37.23;100662.38;5123902;27;45311;-62
2022/09/02 07:55:20;;;;;;;;;8.00;8.00;;;;;23.44;37.24;100664.94;5124740;27;45464;-61
2022/09/02 07:57:46;;;;;;;;;12.50;12.00;;;;;23.45;37.12;100658.63;5124477;27;45258;-61
2022/09/02 08:00:13;;;;;;;;;14.00;9.50;;;;;23.48;37.04;100667.31;5124338;27;46101;-61
2022/09/02 08:02:38;;;;;;;;;9.00;8.50;;;;;23.48;37.30;100666.44;5106141;27;45370;-61
2022/09/02 08:05:04;;;;;;;;;10.00;8.75;;;;;23.53;37.03;100666.97;5124255;27;45488;-61
2022/09/02 08:07:29;;;;;;;;;11.75;11.50;;;;;23.57;36.92;100681.03;5124486;27;45386;-62
2022/09/02 08:09:55;;;;;;;;;11.00;9.75;;;;;23.59;37.23;100693.38;5124168;27;46095;-61
2022/09/02 08:12:20;;;;;;;;;9.75;9.00;;;;;23.59;37.05;100693.38;5124304;27;45374;-61
2022/09/02 08:14:46;;;;;;;;;11.50;11.50;;;;;23.61;36.88;100702.16;5124425;27;45310;-61
2022/09/02 08:17:11;;;;;;;;;12.75;11.25;;;;;23.62;36.99;100697.66;5124220;27;45408;-62
2022/09/02 08:19:37;;;;;;;;;12.25;10.75;;;;;23.65;37.04;100710.88;5123916;27;45373;-61
2022/09/02 08:22:06;;;;;;;;;12.75;12.25;;;;;23.64;36.93;100699.25;5124423;27;45373;-61
2022/09/02 08:24:32;;;;;;;;;12.75;10.00;;;;;23.66;37.29;100705.38;5122954;27;45239;-62
2022/09/02 08:26:59;;;;;;;;;10.25;9.50;;;;;23.69;37.00;100701.63;5124181;27;45153;-61
2022/09/02 08:29:24;;;;;;;;;12.75;12.75;;;;;23.70;37.21;100701.50;5123697;27;46163;-61
2022/09/02 08:31:49;;;;;;;;;12.50;12.50;;;;;23.75;37.39;100703.00;5124000;27;45489;-62
2022/09/02 08:34:15;;;;;;;;;11.00;11.00;;;;;23.75;36.91;100703.00;5124074;27;45337;-61
2022/09/02 08:36:42;;;;;;;;;10.75;9.50;;;;;23.76;37.43;100723.50;5123983;27;45418;-61
2022/09/02 08:39:08;;;;;;;;;15.25;12.75;;;;;23.79;37.49;100771.59;5123200;27;45563;-61
2022/09/02 08:41:57;;;;;;;;;13.75;13.00;;;;;23.76;37.71;100779.84;5123883;27;45237;-62
2022/09/02 08:44:23;;;;;;;;;13.75;13.75;;;;;23.69;38.06;100764.16;5105624;27;45460;-61
2022/09/02 08:46:54;;;;;;;;;17.75;17.00;;;;;23.66;37.94;100747.44;5105158;27;45489;-62
2022/09/02 08:49:34;;;;;;;;;14.50;11.25;;;;;23.61;37.94;100754.94;5123577;27;45406;-62
2022/09/02 08:52:02;;;;;;;;;13.25;12.00;;;;;23.58;37.70;100769.41;5123296;27;45294;-61
2022/09/02 08:54:39;;;;;;;;;15.25;13.50;;;;;23.56;37.80;100762.44;5123780;27;45331;-61
2022/09/02 08:57:04;;;;;;;;;15.75;12.75;;;;;23.54;38.07;100751.81;5123756;27;45421;-61
2022/09/02 08:59:30;;;;;;;;;15.50;13.25;;;;;23.52;37.86;100748.38;5123185;27;47256;-62
2022/09/02 09:02:26;;;;;;;;;17.00;14.25;;;;;23.52;37.70;100759.09;5123818;27;45234;-62
2022/09/02 09:04:57;;;;;;;;;15.75;13.25;;;;;23.51;37.74;100760.94;5122636;27;45235;-61
2022/09/02 09:07:43;;;;;;;;;13.75;13.75;;;;;23.51;37.61;100757.41;5123301;27;45630;-62
2022/09/02 09:10:36;;;;;;;;;12.25;11.75;;;;;23.51;37.95;100760.94;5123548;27;46334;-62
2022/09/02 09:13:22;;;;;;;;;12.50;11.75;;;;;23.52;37.85;100756.44;5123324;27;45381;-61
2022/09/02 09:16:03;;;;;;;;;16.00;11.75;;;;;23.49;38.16;100733.38;5123371;27;45342;-62
2022/09/02 09:18:38;;;;;;;;;11.75;11.50;;;;;23.50;38.09;100745.81;5123226;27;45318;-61
2022/09/02 09:21:06;;;;;;;;;12.00;11.00;;;;;23.51;38.21;100757.41;5104603;27;46118;-61
2022/09/02 09:23:36;;;;;;;;;12.50;11.00;;;;;23.50;38.12;100756.53;5104812;27;45961;-62
2022/09/02 09:26:17;;;;;;;;;12.50;10.75;;;;;23.54;38.03;100750.00;5123667;27;45228;-62
2022/09/02 09:28:48;;;;;;;;;11.25;11.25;;;;;23.56;38.14;100744.53;5123073;27;45243;-62
2022/09/02 09:31:16;;;;;;;;;14.25;13.00;;;;;23.60;37.97;100754.09;5123109;27;45472;-62
2022/09/02 09:33:56;;;;;;;;;11.50;10.25;;;;;23.66;37.95;100748.31;5122868;27;45456;-61
2022/09/02 09:36:43;;;;;;;;;15.75;12.75;;;;;23.73;38.27;100740.69;5123176;27;45457;-62
2022/09/02 09:39:26;;;;;;;;;12.75;12.75;;;;;23.77;37.94;100734.16;5122593;27;46153;-61
2022/09/02 09:41:54;;;;;;;;;12.25;10.75;;;;;23.80;38.02;100728.56;5103760;27;47629;-62
2022/09/02 09:44:29;;;;;;;;;11.00;10.00;;;;;23.85;38.33;100738.97;5104320;27;45353;-62
2022/09/02 09:47:02;;;;;;;;;9.25;9.25;;;;;23.89;37.97;100732.41;5122933;27;45311;-62
2022/09/02 09:49:30;;;;;;;;;13.25;13.25;;;;;23.92;38.14;100732.22;5122769;27;45288;-62
2022/09/02 09:51:55;;;;;;;;;12.50;11.00;;;;;23.98;38.41;100733.63;5122408;27;45435;-62
2022/09/02 09:54:25;;;;;;;;;17.50;14.50;;;;;24.04;38.08;100732.31;5104329;27;45347;-62
2022/09/02 09:56:51;;;;;;;;;13.50;13.50;;;;;24.07;38.43;100732.13;5122701;27;45294;-62
2022/09/02 09:59:40;;;;;;;;;15.25;13.75;;;;;24.12;38.40;100719.22;5104048;27;45539;-62
2022/09/02 10:02:12;;;;;;;;;14.50;14.50;;;;;24.15;38.35;100725.22;5122576;27;46377;-62
2022/09/02 10:04:37;;;;;;;;;14.25;14.25;;;;;24.20;38.08;100726.72;5122291;27;45229;-62
2022/09/02 10:07:03;;;;;;;;;13.50;13.25;;;;;24.22;38.17;100727.47;5122903;27;45330;-61
2022/09/02 10:09:32;;;;;;;;;12.00;10.00;;;;;24.25;38.04;100719.19;5104013;27;45248;-61
2022/09/02 10:11:59;;;;;;;;;11.75;11.25;;;;;24.27;38.03;100715.41;5122747;27;45484;-61
2022/09/02 10:14:35;;;;;;;;;14.00;12.75;;;;;24.29;37.91;100716.19;5122109;27;45279;-61
2022/09/02 10:17:15;;;;;;;;;13.75;12.00;;;;;24.36;38.06;100721.94;5122493;27;45453;-61
2022/09/02 10:19:57;;;;;;;;;15.25;13.00;;;;;24.39;38.00;100712.81;5122353;27;45358;-61
2022/09/02 10:22:47;;;;;;;;;14.75;13.50;;;;;24.45;37.91;100720.41;5122176;27;45434;-61
2022/09/02 10:25:37;;;;;;;;;15.50;14.25;;;;;24.47;37.72;100705.06;5122410;27;45424;-61
2022/09/02 10:28:17;;;;;;;;;16.50;15.00;;;;;24.49;37.72;100709.34;5122344;27;45285;-62
2022/09/02 10:31:01;;;;;;;;;11.75;11.50;;;;;24.47;37.75;100708.59;5122216;27;45232;-62
2022/09/02 10:33:50;;;;;;;;;13.00;12.50;;;;;24.53;37.97;100712.69;5121987;27;45324;-63
2022/09/02 10:36:35;;;;;;;;;16.25;13.00;;;;;24.56;37.73;100696.31;5120822;27;45448;-64
2022/09/02 10:39:21;;;;;;;;;13.50;13.50;;;;;24.56;37.91;100693.63;5121679;27;45464;-63
2022/09/02 10:41:46;;;;;;;;;14.25;14.25;;;;;24.60;37.61;100702.31;5121980;27;45569;-63
2022/09/02 10:44:41;;;;;;;;;18.50;15.50;;;;;24.62;37.59;100700.38;5121975;27;45305;-63
2022/09/02 10:47:13;;;;;;;;;15.25;14.00;;;;;24.63;37.81;100696.75;5121525;27;45219;-63
2022/09/02 10:49:50;;;;;;;;;15.50;14.00;;;;;24.65;37.57;100695.69;5121759;27;45187;-63
2022/09/02 10:52:37;;;;;;;;;17.25;15.50;;;;;24.65;37.62;100694.81;5122012;27;45534;-63
2022/09/02 10:55:23;;;;;;;;;14.50;14.25;;;;;24.64;37.21;100696.66;5121196;27;45392;-63
2022/09/02 10:57:58;;;;;;;;;18.25;15.50;;;;;24.64;37.55;100699.34;5121430;27;45417;-62
2022/09/02 11:00:27;;;;;;;;;18.75;16.75;;;;;24.62;37.64;100695.03;5103471;27;45592;-62
2022/09/02 11:03:20;;;;;;;;;14.75;14.00;;;;;24.62;37.58;100692.34;5121579;27;45267;-62
2022/09/02 11:05:51;;;;;;;;;14.75;14.00;;;;;24.61;37.92;100694.13;5083154;27;45382;-62
2022/09/02 11:08:30;;;;;;;;;13.75;13.75;;;;;24.57;37.41;100686.44;5121577;27;45219;-62
2022/09/02 11:11:14;;;;;;;;;17.00;14.75;;;;;24.59;37.60;100687.16;5121523;27;45325;-62
2022/09/02 11:13:57;;;;;;;;;14.75;14.00;;;;;24.57;37.73;100681.91;5121417;27;45412;-62
2022/09/02 11:16:32;;;;;;;;;16.25;15.50;;;;;24.57;37.56;100691.81;5102792;27;46777;-62
2022/09/02 11:19:09;;;;;;;;;16.75;14.50;;;;;24.58;37.76;100683.66;5121059;27;45853;-62
2022/09/02 11:22:06;;;;;;;;;16.00;14.50;;;;;24.60;37.80;100684.41;5121677;27;45334;-63
2022/09/02 11:24:50;;;;;;;;;14.75;14.00;;;;;24.60;37.51;100680.84;5121497;27;45329;-62